createdAt,value
2022-08-08T00:00:53.090Z,65.92
2022-08-08T00:03:31.450Z,65.96
2022-08-08T00:06:47.885Z,65.94
2022-08-08T00:09:55.981Z,65.94
2022-08-08T00:13:10.828Z,66.15
2022-08-08T00:16:36.076Z,66.20
2022-08-08T00:19:46.698Z,66.31
2022-08-08T00:23:02.558Z,66.29
2022-08-08T00:26:29.010Z,66.33
2022-08-08T00:29:44.905Z,66.31
2022-08-08T00:32:56.879Z,66.48
2022-08-08T00:36:15.068Z,66.68
2022-08-08T00:41:06.863Z,66.53
2022-08-08T00:43:40.894Z,66.66
2022-08-08T00:47:36.770Z,66.69
2022-08-08T00:51:24.843Z,66.79
2022-08-08T00:55:36.047Z,66.76
2022-08-08T00:59:18.746Z,66.95
2022-08-08T01:03:59.988Z,66.98
2022-08-08T01:07:13.368Z,67.06
2022-08-08T01:10:54.342Z,67.10
2022-08-08T01:14:54.129Z,67.14
2022-08-08T01:18:53.356Z,67.31
2022-08-08T01:22:32.347Z,67.39
2022-08-08T01:26:17.882Z,67.39
2022-08-08T01:29:59.164Z,67.41
2022-08-08T01:34:00.522Z,67.49
2022-08-08T01:37:56.883Z,67.62
2022-08-08T01:41:16.010Z,67.64
2022-08-08T01:44:39.081Z,67.70
2022-08-08T01:48:16.293Z,67.67
2022-08-08T01:52:42.795Z,67.75
2022-08-08T01:56:27.580Z,67.96
2022-08-08T01:59:21.822Z,68.06
2022-08-08T02:02:42.986Z,68.01
2022-08-08T02:05:59.255Z,68.05
2022-08-08T02:09:17.402Z,68.12
2022-08-08T02:12:29.859Z,68.29
2022-08-08T02:15:41.352Z,68.50
2022-08-08T02:18:58.902Z,68.45
2022-08-08T02:22:31.592Z,68.44
2022-08-08T02:25:48.754Z,68.57
2022-08-08T02:29:22.102Z,68.51
2022-08-08T02:32:46.566Z,68.65
2022-08-08T02:36:12.516Z,68.69
2022-08-08T02:39:59.548Z,68.70
2022-08-08T02:44:43.121Z,68.89
2022-08-08T02:47:59.683Z,68.87
2022-08-08T02:51:56.544Z,69.07
2022-08-08T02:55:24.146Z,69.14
2022-08-08T02:59:00.604Z,69.15
2022-08-08T03:02:37.683Z,69.21
2022-08-08T03:06:34.986Z,69.28
2022-08-08T03:10:33.430Z,69.46
2022-08-08T03:15:56.573Z,69.51
2022-08-08T03:17:52.129Z,69.62
2022-08-08T03:21:09.969Z,69.64
2022-08-08T03:24:21.463Z,69.65
2022-08-08T03:27:35.975Z,69.76
2022-08-08T03:30:49.345Z,69.87
2022-08-08T03:34:16.778Z,69.88
2022-08-08T03:38:52.827Z,69.86
2022-08-08T03:40:55.379Z,69.93
2022-08-08T03:44:01.736Z,69.73
2022-08-08T03:47:19.450Z,69.96
2022-08-08T03:50:28.037Z,70.06
2022-08-08T03:53:47.324Z,70.24
2022-08-08T03:56:54.889Z,70.11
2022-08-08T04:00:11.583Z,70.27
2022-08-08T04:03:18.348Z,70.49
2022-08-08T04:06:32.665Z,70.38
2022-08-08T04:09:58.875Z,70.56
2022-08-08T04:13:18.164Z,70.58
2022-08-08T04:16:40.658Z,70.60
2022-08-08T04:19:47.471Z,70.65
2022-08-08T04:22:55.006Z,70.74
2022-08-08T04:26:09.405Z,70.83
2022-08-08T04:29:16.396Z,70.84
2022-08-08T04:32:30.572Z,70.97
2022-08-08T04:35:40.706Z,70.96
2022-08-08T04:39:47.928Z,70.98
2022-08-08T04:42:23.621Z,70.96
2022-08-08T04:45:30.329Z,71.00
2022-08-08T04:48:36.539Z,71.07
2022-08-08T04:51:55.171Z,71.29
2022-08-08T04:55:04.516Z,71.21
2022-08-08T04:58:14.709Z,71.27
2022-08-08T05:01:24.091Z,71.31
2022-08-08T05:04:44.531Z,71.31
2022-08-08T05:07:51.231Z,71.20
2022-08-08T05:11:02.984Z,71.18
2022-08-08T05:14:11.944Z,71.24
2022-08-08T05:17:19.102Z,71.16
2022-08-08T05:20:25.639Z,71.26
2022-08-08T05:23:32.962Z,71.11
2022-08-08T05:26:48.782Z,71.19
2022-08-08T05:29:55.165Z,71.23
2022-08-08T05:33:03.354Z,70.95
2022-08-08T05:36:25.440Z,70.88
2022-08-08T05:39:35.024Z,71.08
2022-08-08T05:42:44.703Z,70.66
2022-08-08T05:45:53.324Z,70.83
2022-08-08T05:49:03.815Z,70.74
2022-08-08T05:52:17.835Z,70.57
2022-08-08T05:56:09.531Z,70.58
2022-08-08T05:59:12.647Z,70.68
2022-08-08T06:02:44.008Z,70.58
2022-08-08T06:05:59.094Z,70.63
2022-08-08T06:09:58.556Z,70.52
2022-08-08T06:12:36.706Z,70.56
2022-08-08T06:15:51.375Z,70.54
2022-08-08T06:19:01.841Z,70.53
2022-08-08T06:26:35.945Z,70.35
2022-08-08T06:29:26.887Z,70.18
2022-08-08T06:32:47.707Z,70.21
2022-08-08T06:36:04.693Z,70.26
2022-08-08T06:39:16.473Z,70.32
2022-08-08T06:42:23.646Z,70.28
2022-08-08T06:45:33.404Z,70.22
2022-08-08T06:48:40.084Z,70.31
2022-08-08T07:04:37.715Z,69.75
2022-08-08T07:07:24.022Z,69.55
2022-08-08T07:57:09.029Z,67.54
2022-08-08T08:00:17.874Z,67.55
2022-08-08T08:03:43.461Z,67.75
2022-08-08T08:06:50.770Z,67.78
2022-08-08T08:09:58.690Z,67.94
2022-08-08T08:13:25.825Z,67.88
2022-08-08T08:16:50.449Z,67.62
2022-08-08T08:20:01.677Z,67.66
2022-08-08T08:23:07.934Z,67.50
2022-08-08T08:26:14.781Z,67.67
2022-08-08T08:29:33.680Z,67.81
2022-08-08T08:32:51.113Z,67.89
2022-08-08T08:36:20.418Z,67.72
2022-08-08T08:39:22.916Z,67.82
2022-08-08T08:42:36.199Z,67.79
2022-08-08T08:45:43.986Z,67.62
2022-08-08T08:48:50.747Z,67.58
2022-08-08T08:52:02.908Z,67.56
2022-08-08T08:55:14.740Z,67.42
2022-08-08T08:58:32.737Z,67.55
2022-08-08T09:01:43.726Z,67.61
2022-08-08T09:04:57.335Z,67.46
2022-08-08T09:08:12.759Z,67.17
2022-08-08T09:11:25.676Z,67.19
2022-08-08T09:14:42.811Z,67.24
2022-08-08T09:17:55.803Z,67.28
2022-08-08T09:22:02.438Z,67.06
2022-08-08T09:24:32.667Z,67.16
2022-08-08T09:27:56.701Z,66.79
2022-08-08T09:31:13.229Z,66.42
2022-08-08T09:34:32.058Z,66.12
2022-08-08T09:37:58.267Z,66.10
2022-08-08T09:41:08.167Z,66.01
2022-08-08T09:44:34.455Z,65.88
2022-08-08T09:48:05.159Z,65.95
2022-08-08T09:51:09.895Z,65.18
2022-08-08T09:54:19.979Z,65.07
2022-08-08T09:57:55.812Z,64.73
2022-08-08T10:01:15.632Z,64.77
2022-08-08T10:04:47.528Z,64.42
2022-08-08T10:08:01.630Z,64.05
2022-08-08T10:12:22.444Z,63.96
2022-08-08T10:14:40.224Z,63.30
2022-08-08T10:18:06.458Z,63.37
2022-08-08T10:21:25.292Z,62.74
2022-08-08T10:24:38.173Z,62.40
2022-08-08T10:27:46.449Z,62.12
2022-08-08T10:31:21.513Z,61.72
2022-08-08T10:35:00.448Z,61.77
2022-08-08T10:38:10.743Z,61.30
2022-08-08T10:41:24.329Z,61.02
2022-08-08T10:44:43.198Z,60.69
2022-08-08T10:47:56.710Z,60.69
2022-08-08T10:51:14.828Z,60.58
2022-08-08T10:54:26.844Z,60.41
2022-08-08T10:57:45.505Z,60.12
2022-08-08T11:01:03.149Z,59.20
2022-08-08T11:04:12.282Z,58.66
2022-08-08T11:08:30.277Z,58.25
2022-08-08T11:11:08.166Z,58.20
2022-08-08T11:14:32.510Z,57.90
2022-08-08T11:17:59.385Z,57.23
2022-08-08T11:21:10.083Z,56.95
2022-08-08T11:24:17.171Z,56.74
2022-08-08T11:27:36.962Z,56.54
2022-08-08T11:30:51.844Z,55.80
2022-08-08T11:34:22.911Z,55.59
2022-08-08T11:37:39.790Z,54.90
2022-08-08T11:40:57.979Z,54.73
2022-08-08T11:44:05.381Z,54.33
2022-08-08T11:47:17.152Z,53.96
2022-08-08T11:50:25.030Z,53.64
2022-08-08T11:53:42.897Z,53.44
2022-08-08T11:57:14.000Z,52.86
2022-08-08T12:00:23.379Z,52.74
2022-08-08T12:03:34.227Z,52.93
2022-08-08T12:06:40.730Z,52.79
2022-08-08T12:09:59.326Z,52.73
2022-08-08T12:13:12.293Z,52.36
2022-08-08T12:16:30.198Z,52.15
2022-08-08T12:19:51.839Z,52.16
2022-08-08T12:23:00.375Z,51.76
2022-08-08T12:26:16.919Z,51.80
2022-08-08T12:29:42.331Z,51.40
2022-08-08T12:32:51.218Z,50.01
2022-08-08T12:35:57.517Z,50.54
2022-08-08T12:39:06.757Z,50.19
2022-08-08T12:42:20.883Z,50.15
2022-08-08T12:46:00.096Z,50.02
2022-08-08T12:52:34.838Z,49.39
2022-08-08T12:56:17.753Z,49.37
2022-08-08T12:59:36.454Z,48.97
2022-08-08T13:03:00.700Z,48.92
2022-08-08T13:06:13.993Z,48.75
2022-08-08T13:09:29.951Z,48.69
2022-08-08T13:12:46.979Z,48.36
2022-08-08T13:15:55.076Z,48.41
2022-08-08T13:19:08.029Z,48.40
2022-08-08T13:22:24.530Z,48.35
2022-08-08T13:25:37.668Z,47.98
2022-08-08T13:28:45.710Z,48.16
2022-08-08T13:31:53.165Z,47.98
2022-08-08T13:35:00.642Z,47.79
2022-08-08T13:38:08.725Z,47.69
2022-08-08T13:41:19.669Z,47.48
2022-08-08T13:44:30.291Z,47.43
2022-08-08T13:47:37.534Z,47.54
2022-08-08T13:50:52.540Z,47.30
2022-08-08T13:54:01.035Z,46.99
2022-08-08T13:57:12.625Z,46.67
2022-08-08T14:00:23.078Z,46.96
2022-08-08T14:03:52.329Z,46.80
2022-08-08T14:07:03.332Z,46.45
2022-08-08T14:10:17.570Z,46.60
2022-08-08T14:13:59.221Z,46.67
2022-08-08T14:17:11.798Z,46.62
2022-08-08T14:20:56.958Z,46.77
2022-08-08T14:24:07.968Z,46.75
2022-08-08T14:27:27.069Z,46.52
2022-08-08T14:30:37.722Z,46.60
2022-08-08T14:33:51.812Z,46.73
2022-08-08T14:37:08.309Z,46.62
2022-08-08T14:40:24.010Z,46.59
2022-08-08T14:44:02.577Z,46.42
2022-08-08T14:47:01.598Z,46.64
2022-08-08T14:50:21.373Z,46.78
2022-08-08T14:53:56.294Z,46.65
2022-08-08T14:57:03.984Z,46.48
2022-08-08T15:00:13.756Z,46.41
2022-08-08T15:03:19.943Z,46.51
2022-08-08T15:06:28.902Z,46.47
2022-08-08T15:09:35.122Z,46.55
2022-08-08T15:12:42.506Z,46.07
2022-08-08T15:16:02.474Z,46.33
2022-08-08T15:19:09.775Z,46.44
2022-08-08T15:22:17.924Z,46.51
2022-08-08T15:25:32.975Z,46.66
2022-08-08T15:28:39.545Z,46.78
2022-08-08T15:32:03.712Z,46.94
2022-08-08T15:35:12.655Z,47.33
2022-08-08T15:38:22.594Z,47.17
2022-08-08T15:41:43.493Z,47.56
2022-08-08T15:44:50.527Z,48.00
2022-08-08T15:48:11.126Z,48.03
2022-08-08T15:51:22.758Z,48.23
2022-08-08T15:54:40.566Z,48.24
2022-08-08T15:57:46.735Z,48.46
2022-08-08T16:00:53.328Z,48.71
2022-08-08T16:03:59.920Z,48.91
2022-08-08T16:07:07.034Z,48.97
2022-08-08T16:13:15.124Z,49.09
2022-08-08T16:13:46.011Z,49.15
2022-08-08T16:16:55.247Z,49.18
2022-08-08T16:20:01.567Z,49.49
2022-08-08T16:23:08.811Z,49.81
2022-08-08T16:26:19.358Z,49.74
2022-08-08T16:30:12.883Z,49.65
2022-08-08T16:33:05.700Z,49.70
2022-08-08T16:36:15.645Z,49.87
2022-08-08T16:39:59.963Z,49.99
2022-08-08T16:42:51.772Z,50.17
2022-08-08T16:46:37.473Z,50.31
2022-08-08T16:49:38.508Z,50.64
2022-08-08T16:55:04.075Z,50.91
2022-08-08T16:56:15.253Z,51.02
2022-08-08T16:59:21.780Z,51.11
2022-08-08T17:02:38.114Z,51.23
2022-08-08T17:05:50.935Z,51.37
2022-08-08T17:08:57.193Z,51.48
2022-08-08T17:12:03.445Z,51.59
2022-08-08T17:15:20.152Z,51.61
2022-08-08T17:18:27.118Z,51.90
2022-08-08T17:21:41.145Z,52.33
2022-08-08T17:24:53.740Z,52.79
2022-08-08T17:28:00.356Z,52.93
2022-08-08T17:31:44.768Z,52.76
2022-08-08T17:34:47.855Z,53.02
2022-08-08T17:38:01.197Z,53.41
2022-08-08T17:41:10.221Z,53.88
2022-08-08T17:44:17.711Z,54.16
2022-08-08T17:47:27.614Z,54.40
2022-08-08T17:50:34.806Z,54.62
2022-08-08T17:53:43.394Z,54.97
2022-08-08T17:56:50.362Z,55.15
2022-08-08T18:00:01.619Z,55.16
2022-08-08T18:03:13.348Z,55.55
2022-08-08T18:06:30.757Z,55.95
2022-08-08T18:09:38.840Z,56.19
2022-08-08T18:12:46.016Z,56.38
2022-08-08T18:16:04.220Z,56.45
2022-08-08T18:19:13.284Z,56.70
2022-08-08T18:22:49.913Z,56.79
2022-08-08T18:25:48.046Z,57.14
2022-08-08T18:28:55.516Z,57.26
2022-08-08T18:32:03.229Z,57.43
2022-08-08T18:35:15.835Z,57.63
2022-08-08T18:38:29.547Z,57.82
2022-08-08T18:41:51.683Z,57.92
2022-08-08T18:45:09.227Z,58.05
2022-08-08T18:48:29.576Z,58.35
2022-08-08T18:51:52.732Z,58.43
2022-08-08T18:55:09.802Z,58.61
2022-08-08T18:58:17.853Z,58.80
2022-08-08T19:02:25.390Z,58.98
2022-08-08T19:04:55.513Z,59.19
2022-08-08T19:08:02.313Z,59.36
2022-08-08T19:11:09.426Z,59.48
2022-08-08T19:14:20.431Z,59.60
2022-08-08T19:17:29.359Z,59.80
2022-08-08T19:20:53.770Z,59.90
2022-08-08T19:24:00.326Z,60.07
2022-08-08T19:27:07.853Z,60.21
2022-08-08T19:30:24.029Z,60.30
2022-08-08T19:33:51.951Z,60.49
2022-08-08T19:37:00.178Z,60.67
2022-08-08T19:40:08.363Z,60.86
2022-08-08T19:43:22.065Z,60.93
2022-08-08T19:46:34.723Z,61.03
2022-08-08T19:49:43.077Z,61.20
2022-08-08T19:52:54.948Z,61.27
2022-08-08T19:56:11.965Z,61.44
2022-08-08T19:59:22.470Z,61.57
2022-08-08T20:02:29.126Z,61.64
2022-08-08T20:06:13.400Z,61.81
2022-08-08T20:09:04.604Z,61.86
2022-08-08T20:12:15.391Z,62.06
2022-08-08T20:15:59.767Z,62.20
2022-08-08T20:19:06.414Z,62.40
2022-08-08T20:22:20.867Z,62.40
2022-08-08T20:25:33.503Z,62.57
2022-08-08T20:28:39.686Z,62.74
2022-08-08T20:32:09.978Z,62.84
2022-08-08T20:35:17.914Z,63.01
2022-08-08T20:38:32.679Z,63.06
2022-08-08T20:41:41.398Z,63.20
2022-08-08T20:44:48.427Z,63.35
2022-08-08T20:47:57.717Z,63.43
2022-08-08T20:51:07.834Z,63.60
2022-08-08T20:54:13.868Z,63.65
2022-08-08T20:57:30.830Z,63.73
2022-08-08T21:00:42.303Z,63.74
2022-08-08T21:03:55.360Z,63.93
2022-08-08T21:07:03.000Z,64.10
2022-08-08T21:10:14.331Z,64.17
2022-08-08T21:13:23.478Z,64.25
2022-08-08T21:16:46.640Z,64.34
2022-08-08T21:19:52.556Z,64.38
2022-08-08T21:23:09.197Z,64.60
2022-08-08T21:26:26.863Z,64.69
2022-08-08T21:30:03.961Z,64.84
2022-08-08T21:33:00.067Z,64.86
2022-08-08T21:36:28.723Z,65.00
2022-08-08T21:39:56.144Z,65.11
2022-08-08T21:43:01.698Z,65.19
2022-08-08T21:48:06.606Z,65.23
2022-08-08T21:49:37.207Z,65.43
2022-08-08T21:54:27.269Z,65.58
2022-08-08T21:56:31.126Z,65.55
2022-08-08T22:00:01.243Z,65.77
2022-08-08T22:03:02.830Z,65.86
2022-08-08T22:06:13.256Z,65.85
2022-08-08T22:09:43.590Z,66.03
2022-08-08T22:12:51.479Z,66.01
2022-08-08T22:16:00.769Z,66.03
2022-08-08T22:19:08.694Z,66.23
2022-08-08T22:22:24.369Z,66.26
2022-08-08T22:25:41.524Z,66.35
2022-08-08T22:29:14.446Z,66.52
2022-08-08T22:32:29.500Z,66.46
2022-08-08T22:36:04.412Z,66.62
2022-08-08T22:39:01.933Z,66.69
2022-08-08T22:42:12.960Z,66.76
2022-08-08T22:45:19.115Z,66.78
2022-08-08T22:48:25.326Z,67.01
2022-08-08T22:51:35.108Z,67.07
2022-08-08T22:54:53.968Z,67.25
2022-08-08T22:58:02.492Z,67.19
2022-08-08T23:01:26.873Z,67.26
2022-08-08T23:04:37.709Z,67.43
2022-08-08T23:07:56.964Z,67.37
2022-08-08T23:11:06.451Z,67.48
2022-08-08T23:14:20.965Z,67.61
2022-08-08T23:17:30.002Z,67.78
2022-08-08T23:20:36.522Z,67.86
2022-08-08T23:23:48.251Z,67.81
2022-08-08T23:27:00.598Z,67.93
2022-08-08T23:30:09.185Z,68.15
2022-08-08T23:33:21.139Z,68.10
2022-08-08T23:36:42.839Z,68.36
2022-08-08T23:39:55.328Z,68.29
2022-08-08T23:43:04.360Z,68.38
2022-08-08T23:48:59.627Z,68.49
2022-08-08T23:49:37.097Z,68.67
2022-08-08T23:52:43.902Z,68.56
2022-08-08T23:55:50.235Z,68.67
2022-08-08T23:58:59.532Z,68.70
